createdAt,value
2018-07-28T00:01:41.371Z,98305.91
2018-07-28T00:04:10.974Z,98302.51
2018-07-28T00:06:41.118Z,98302.31
2018-07-28T00:09:11.799Z,98303.06
2018-07-28T00:11:41.246Z,98299.83
2018-07-28T00:14:11.454Z,98303.01
2018-07-28T00:16:41.091Z,98299.33
2018-07-28T00:19:11.403Z,98302.98
2018-07-28T00:21:41.843Z,98306.22
2018-07-28T00:24:11.267Z,98297.38
2018-07-28T00:26:41.204Z,98299.34
2018-07-28T00:29:11.612Z,98295.80
2018-07-28T00:31:40.936Z,98290.03
2018-07-28T00:34:10.549Z,98294.17
2018-07-28T00:36:41.028Z,98295.69
2018-07-28T00:39:13.241Z,98294.03
2018-07-28T00:41:42.826Z,98296.06
2018-07-28T00:44:13.400Z,98297.94
2018-07-28T00:46:44.663Z,98286.06
2018-07-28T00:49:14.132Z,98280.25
2018-07-28T00:51:43.543Z,98278.70
2018-07-28T00:54:12.906Z,98270.34
2018-07-28T00:56:42.566Z,98270.14
2018-07-28T00:59:11.917Z,98264.52
2018-07-28T01:01:42.135Z,98266.94
2018-07-28T01:04:12.283Z,98259.47
2018-07-28T01:06:41.962Z,98269.33
2018-07-28T01:09:12.352Z,98271.96
2018-07-28T01:11:41.691Z,98263.67
2018-07-28T01:14:11.036Z,98255.25
2018-07-28T01:16:41.223Z,98262.16
2018-07-28T01:19:11.370Z,98263.09
2018-07-28T01:21:41.161Z,98268.61
2018-07-28T01:24:11.611Z,98265.80
2018-07-28T01:26:41.121Z,98266.42
2018-07-28T01:29:17.659Z,98265.69
2018-07-28T01:31:49.265Z,98265.16
2018-07-28T01:34:19.135Z,98259.55
2018-07-28T01:36:48.435Z,98250.48
2018-07-28T01:39:18.939Z,98247.86
2018-07-28T01:41:48.976Z,98243.71
2018-07-28T01:44:18.737Z,98243.61
2018-07-28T01:46:48.688Z,98248.39
2018-07-28T01:49:18.097Z,98256.05
2018-07-28T01:51:47.689Z,98244.94
2018-07-28T01:54:17.651Z,98249.27
2018-07-28T01:56:46.999Z,98240.38
2018-07-28T01:59:16.671Z,98239.09
2018-07-28T02:01:46.341Z,98234.52
2018-07-28T02:04:15.667Z,98237.65
2018-07-28T02:06:45.331Z,98230.38
2018-07-28T02:09:15.505Z,98221.55
2018-07-28T02:11:45.121Z,98216.42
2018-07-28T02:14:14.484Z,98217.08
2018-07-28T02:16:44.277Z,98213.33
2018-07-28T02:19:13.987Z,98211.58
2018-07-28T02:21:43.502Z,98204.67
2018-07-28T02:24:12.874Z,98204.89
2018-07-28T02:26:42.172Z,98198.21
2018-07-28T02:29:11.807Z,98196.95
2018-07-28T02:31:42.109Z,98192.20
2018-07-28T02:34:11.487Z,98189.67
2018-07-28T02:36:41.039Z,98187.28
2018-07-28T02:39:11.763Z,98186.08
2018-07-28T02:41:42.287Z,98179.98
2018-07-28T02:44:11.646Z,98186.20
2018-07-28T02:46:40.994Z,98185.20
2018-07-28T02:49:10.350Z,98185.61
2018-07-28T02:51:40.115Z,98184.58
2018-07-28T02:54:09.472Z,98181.31
2018-07-28T02:56:38.816Z,98177.63
2018-07-28T02:59:10.213Z,98173.55
2018-07-28T03:01:39.591Z,98177.06
2018-07-28T03:04:10.388Z,98172.11
2018-07-28T03:06:39.700Z,98173.47
2018-07-28T03:09:11.263Z,98169.75
2018-07-28T03:11:41.530Z,98172.77
2018-07-28T03:14:11.401Z,98172.49
2018-07-28T03:16:40.723Z,98177.83
2018-07-28T03:19:10.595Z,98172.99
2018-07-28T03:21:40.239Z,98172.02
2018-07-28T03:24:10.273Z,98173.36
2018-07-28T03:26:39.847Z,98172.41
2018-07-28T03:29:09.548Z,98166.30
2018-07-28T03:31:38.901Z,98165.83
2018-07-28T03:34:08.479Z,98164.36
2018-07-28T03:36:38.168Z,98162.97
2018-07-28T03:39:09.891Z,98162.78
2018-07-28T03:41:39.742Z,98157.53
2018-07-28T03:44:09.517Z,98155.36
2018-07-28T03:46:38.908Z,98158.78
2018-07-28T03:49:08.522Z,98167.48
2018-07-28T03:51:37.848Z,98163.13
2018-07-28T03:54:07.622Z,98167.19
2018-07-28T03:56:36.996Z,98162.98
2018-07-28T03:59:06.609Z,98165.02
2018-07-28T04:01:36.010Z,98148.08
2018-07-28T04:04:06.185Z,98151.45
2018-07-28T04:06:36.014Z,98148.55
2018-07-28T04:09:07.792Z,98148.55
2018-07-28T04:11:37.480Z,98143.88
2018-07-28T04:14:06.853Z,98146.11
2018-07-28T04:16:36.206Z,98149.95
2018-07-28T04:19:05.774Z,98156.91
2018-07-28T04:21:35.612Z,98155.09
2018-07-28T04:24:05.262Z,98148.84
2018-07-28T04:26:35.331Z,98156.16
2018-07-28T04:29:04.892Z,98148.86
2018-07-28T04:31:34.204Z,98139.47
2018-07-28T04:34:04.354Z,98140.34
2018-07-28T04:36:33.939Z,98135.67
2018-07-28T04:39:03.645Z,98143.06
2018-07-28T04:41:34.163Z,98137.75
2018-07-28T04:44:04.423Z,98137.43
2018-07-28T04:46:33.654Z,98138.48
2018-07-28T04:49:02.996Z,98144.49
2018-07-28T04:51:33.946Z,98149.52
2018-07-28T04:54:03.724Z,98146.86
2018-07-28T04:56:33.068Z,98146.20
2018-07-28T04:59:02.406Z,98143.41
2018-07-28T05:01:32.525Z,98143.53
2018-07-28T05:04:01.826Z,98140.83
2018-07-28T05:06:31.406Z,98131.64
2018-07-28T05:09:00.727Z,98133.19
2018-07-28T05:11:30.200Z,98134.52
2018-07-28T05:13:59.512Z,98129.84
2018-07-28T05:16:28.847Z,98126.32
2018-07-28T05:18:58.181Z,98128.42
2018-07-28T05:21:28.540Z,98129.77
2018-07-28T05:23:57.920Z,98131.11
2018-07-28T05:26:27.475Z,98133.81
2018-07-28T05:28:56.847Z,98128.77
2018-07-28T05:31:26.218Z,98134.01
2018-07-28T05:33:55.755Z,98132.55
2018-07-28T05:36:25.471Z,98132.55
2018-07-28T05:38:54.831Z,98141.30
2018-07-28T05:41:24.553Z,98147.96
2018-07-28T05:43:53.844Z,98154.09
2018-07-28T05:46:24.861Z,98150.94
2018-07-28T05:48:54.195Z,98143.63
2018-07-28T05:51:23.947Z,98142.23
2018-07-28T05:53:53.261Z,98149.94
2018-07-28T05:56:23.630Z,98127.42
2018-07-28T05:58:53.068Z,98115.58
2018-07-28T06:01:22.980Z,98118.54
2018-07-28T06:03:52.503Z,98128.83
2018-07-28T06:06:21.923Z,98128.14
2018-07-28T06:08:51.385Z,98124.70
2018-07-28T06:11:20.753Z,98124.44
2018-07-28T06:13:50.671Z,98120.81
2018-07-28T06:16:20.064Z,98123.88
2018-07-28T06:18:50.656Z,98133.55
2018-07-28T06:21:20.252Z,98129.98
2018-07-28T06:23:49.661Z,98121.98
2018-07-28T06:26:18.999Z,98130.84
2018-07-28T06:28:48.663Z,98128.50
2018-07-28T06:31:18.226Z,98138.38
2018-07-28T06:33:47.544Z,98145.42
2018-07-28T06:36:17.763Z,98151.81
2018-07-28T06:38:47.067Z,98150.88
2018-07-28T06:41:17.310Z,98147.30
2018-07-28T06:43:47.355Z,98140.17
2018-07-28T06:46:16.686Z,98137.23
2018-07-28T06:48:46.344Z,98143.48
2018-07-28T06:51:16.684Z,98145.91
2018-07-28T06:53:46.138Z,98143.16
2018-07-28T06:56:15.415Z,98147.02
2018-07-28T06:58:45.566Z,98143.30
2018-07-28T07:01:14.898Z,98136.18
2018-07-28T07:03:44.399Z,98132.22
2018-07-28T07:06:13.974Z,98128.20
2018-07-28T07:08:43.363Z,98131.33
2018-07-28T07:11:12.715Z,98130.99
2018-07-28T07:13:42.110Z,98126.50
2018-07-28T07:16:11.466Z,98122.16
2018-07-28T07:18:41.636Z,98138.53
2018-07-28T07:21:10.965Z,98134.25
2018-07-28T07:23:40.514Z,98133.34
2018-07-28T07:26:09.855Z,98138.63
2018-07-28T07:28:39.320Z,98133.96
2018-07-28T07:31:09.659Z,98140.46
2018-07-28T07:33:39.386Z,98136.20
2018-07-28T07:36:09.850Z,98134.17
2018-07-28T07:38:39.097Z,98135.02
2018-07-28T07:41:08.534Z,98134.41
2018-07-28T07:43:38.731Z,98130.22
2018-07-28T07:46:08.317Z,98132.48
2018-07-28T07:48:38.491Z,98132.13
2018-07-28T07:51:08.332Z,98134.97
2018-07-28T07:53:37.892Z,98129.48
2018-07-28T07:56:07.547Z,98134.80
2018-07-28T07:58:36.939Z,98144.98
2018-07-28T08:01:06.787Z,98162.75
2018-07-28T08:03:36.104Z,98182.70
2018-07-28T08:06:05.772Z,98222.24
2018-07-28T08:08:35.424Z,98235.54
2018-07-28T08:11:05.167Z,98249.70
2018-07-28T08:13:34.456Z,98251.17
2018-07-28T08:16:04.171Z,98251.19
2018-07-28T08:18:33.566Z,98249.27
2018-07-28T08:21:02.934Z,98249.52
2018-07-28T08:23:32.344Z,98265.32
2018-07-28T08:26:02.012Z,98267.02
2018-07-28T08:28:31.328Z,98271.13
2018-07-28T08:31:00.875Z,98269.17
2018-07-28T08:33:31.312Z,98272.11
2018-07-28T08:36:00.574Z,98281.13
2018-07-28T08:38:30.112Z,98287.31
2018-07-28T08:40:59.479Z,98289.35
2018-07-28T08:43:29.450Z,98274.36
2018-07-28T08:45:58.783Z,98279.11
2018-07-28T08:48:28.077Z,98295.13
2018-07-28T08:50:57.886Z,98276.83
2018-07-28T08:53:27.225Z,98290.05
2018-07-28T08:55:57.849Z,98289.00
2018-07-28T08:58:27.503Z,98277.86
2018-07-28T09:00:56.851Z,98278.64
2018-07-28T09:03:26.203Z,98286.14
2018-07-28T09:05:55.944Z,98278.03
2018-07-28T09:08:25.264Z,98275.09
2018-07-28T09:10:55.115Z,98270.91
2018-07-28T09:13:24.458Z,98274.20
2018-07-28T09:15:54.216Z,98266.83
2018-07-28T09:18:24.252Z,98270.61
2018-07-28T09:20:53.583Z,98284.54
2018-07-28T09:23:22.971Z,98282.22
2018-07-28T09:25:52.228Z,98279.73
2018-07-28T09:28:21.934Z,98276.61
2018-07-28T09:30:51.275Z,98267.33
2018-07-28T09:33:21.122Z,98269.48
2018-07-28T09:35:50.716Z,98259.20
2018-07-28T09:38:21.721Z,98259.85
2018-07-28T09:40:51.055Z,98263.02
2018-07-28T09:43:20.504Z,98266.03
2018-07-28T09:45:50.058Z,98266.06
2018-07-28T09:48:19.403Z,98267.55
2018-07-28T09:50:48.716Z,98260.89
2018-07-28T09:53:18.476Z,98247.01
2018-07-28T09:55:48.108Z,98247.91
2018-07-28T09:58:19.378Z,98233.70
2018-07-28T10:00:54.141Z,98227.44
2018-07-28T10:03:24.161Z,98222.36
2018-07-28T10:05:54.202Z,98231.12
2018-07-28T10:08:25.135Z,98252.38
2018-07-28T10:11:03.385Z,98258.97
2018-07-28T10:13:34.647Z,98263.77
2018-07-28T10:16:10.199Z,98252.62
2018-07-28T10:18:40.836Z,98262.94
2018-07-28T10:21:10.187Z,98267.41
2018-07-28T10:23:41.937Z,98274.22
2018-07-28T10:26:12.828Z,98275.52
2018-07-28T10:28:44.368Z,98278.81
2018-07-28T10:31:14.108Z,98288.69
2018-07-28T10:33:44.754Z,98288.69
2018-07-28T10:36:14.343Z,98293.78
2018-07-28T10:38:45.433Z,98293.06
2018-07-28T10:41:15.675Z,98298.27
2018-07-28T10:43:45.156Z,98295.64
2018-07-28T10:46:19.089Z,98289.29
2018-07-28T10:48:51.674Z,98287.98
2018-07-28T10:51:21.584Z,98285.19
2018-07-28T10:53:51.290Z,98283.92
2018-07-28T10:56:20.739Z,98279.20
2018-07-28T10:58:50.808Z,98280.72
2018-07-28T11:01:20.706Z,98281.69
2018-07-28T11:03:50.252Z,98283.05
2018-07-28T11:06:20.454Z,98277.74
2018-07-28T11:08:50.240Z,98272.58
2018-07-28T11:11:20.692Z,98268.99
2018-07-28T11:13:51.163Z,98270.35
2018-07-28T11:16:21.156Z,98275.84
2018-07-28T11:18:50.788Z,98273.86
2018-07-28T11:21:20.116Z,98265.72
2018-07-28T11:23:59.398Z,98257.81
2018-07-28T11:26:29.155Z,98258.25
2018-07-28T11:28:59.235Z,98257.99
2018-07-28T11:31:39.739Z,98255.08
2018-07-28T11:34:20.243Z,98263.03
2018-07-28T11:37:00.631Z,98261.17
2018-07-28T11:39:41.952Z,98257.00
2018-07-28T11:42:22.851Z,98256.80
2018-07-28T11:45:06.606Z,98263.81
2018-07-28T11:47:37.268Z,98247.27
2018-07-28T11:50:06.779Z,98246.04
2018-07-28T11:52:36.097Z,98246.48
2018-07-28T11:55:05.763Z,98243.19
2018-07-28T11:57:35.112Z,98239.88
2018-07-28T12:00:05.399Z,98241.84
2018-07-28T12:02:35.420Z,98241.94
2018-07-28T12:05:05.408Z,98238.69
2018-07-28T12:07:35.317Z,98250.08
2018-07-28T12:10:06.736Z,98244.77
2018-07-28T12:12:36.121Z,98243.83
2018-07-28T12:15:06.196Z,98244.95
2018-07-28T12:17:35.520Z,98245.60
2018-07-28T12:20:07.282Z,98246.09
2018-07-28T12:22:37.003Z,98245.03
2018-07-28T12:25:06.824Z,98251.42
2018-07-28T12:27:36.490Z,98250.66
2018-07-28T12:30:09.403Z,98247.37
2018-07-28T12:32:38.943Z,98246.60
2018-07-28T12:35:08.556Z,98255.92
2018-07-28T12:37:38.297Z,98250.18
2018-07-28T12:40:07.662Z,98260.94
2018-07-28T12:42:36.976Z,98257.70
2018-07-28T12:45:06.395Z,98258.33
2018-07-28T12:47:36.031Z,98266.02
2018-07-28T12:50:05.595Z,98255.97
2018-07-28T12:52:35.711Z,98250.02
2018-07-28T12:55:05.051Z,98243.23
2018-07-28T12:57:34.406Z,98241.42
2018-07-28T13:00:04.285Z,98239.64
2018-07-28T13:02:33.945Z,98238.25
2018-07-28T13:05:03.296Z,98240.85
2018-07-28T13:07:33.082Z,98248.28
2018-07-28T13:10:03.271Z,98249.16
2018-07-28T13:12:33.363Z,98258.38
2018-07-28T13:15:03.025Z,98269.38
2018-07-28T13:17:32.775Z,98271.19
2018-07-28T13:20:02.345Z,98268.91
2018-07-28T13:22:31.968Z,98272.86
2018-07-28T13:25:01.672Z,98278.09
2018-07-28T13:27:31.685Z,98279.27
2018-07-28T13:30:01.069Z,98304.58
2018-07-28T13:32:30.533Z,98335.59
2018-07-28T13:34:59.829Z,98330.41
2018-07-28T13:37:30.465Z,98305.91
2018-07-28T13:40:00.245Z,98318.66
2018-07-28T13:42:31.767Z,98334.10
2018-07-28T13:45:01.858Z,98340.41
2018-07-28T13:47:31.268Z,98366.20
2018-07-28T13:50:01.304Z,98333.05
2018-07-28T13:52:32.762Z,98345.08
2018-07-28T13:55:02.995Z,98352.50
2018-07-28T13:57:33.464Z,98349.39
2018-07-28T14:00:02.808Z,98342.92
2018-07-28T14:02:33.547Z,98348.01
2018-07-28T14:05:02.832Z,98330.14
2018-07-28T14:07:32.673Z,98348.99
2018-07-28T14:10:02.765Z,98358.59
2018-07-28T14:12:33.404Z,98350.76
2018-07-28T14:15:02.828Z,98359.17
2018-07-28T14:17:32.073Z,98352.44
2018-07-28T14:20:01.815Z,98362.06
2018-07-28T14:22:31.253Z,98364.48
2018-07-28T14:25:01.664Z,98354.83
2018-07-28T14:27:31.995Z,98346.24
2018-07-28T14:30:01.309Z,98344.84
2018-07-28T14:32:30.705Z,98344.75
2018-07-28T14:35:00.569Z,98343.34
2018-07-28T14:37:29.902Z,98350.73
2018-07-28T14:39:59.590Z,98352.14
2018-07-28T14:42:30.601Z,98348.52
2018-07-28T14:45:01.015Z,98342.66
2018-07-28T14:47:30.388Z,98347.73
2018-07-28T14:50:00.610Z,98352.30
2018-07-28T14:52:29.971Z,98356.88
2018-07-28T14:55:00.198Z,98343.78
2018-07-28T14:57:29.579Z,98334.63
2018-07-28T14:59:58.917Z,98331.37
2018-07-28T15:02:28.628Z,98326.64
2018-07-28T15:04:58.145Z,98329.98
2018-07-28T15:07:27.540Z,98322.25
2018-07-28T15:09:56.865Z,98322.91
2018-07-28T15:12:27.197Z,98321.08
2018-07-28T15:14:56.518Z,98323.45
2018-07-28T15:17:26.340Z,98324.66
2018-07-28T15:19:55.663Z,98342.33
2018-07-28T15:22:25.049Z,98342.14
2018-07-28T15:24:54.361Z,98353.28
2018-07-28T15:27:24.100Z,98352.26
2018-07-28T15:29:53.429Z,98349.88
2018-07-28T15:32:23.364Z,98355.53
2018-07-28T15:34:53.086Z,98341.56
2018-07-28T15:37:23.446Z,98342.67
2018-07-28T15:39:52.857Z,98350.41
2018-07-28T15:42:22.815Z,98338.91
2018-07-28T15:44:53.009Z,98337.02
2018-07-28T15:47:22.572Z,98343.12
2018-07-28T15:49:52.443Z,98338.61
2018-07-28T15:52:22.301Z,98339.73
2018-07-28T15:54:51.600Z,98318.88
2018-07-28T15:57:21.857Z,98332.67
2018-07-28T15:59:51.398Z,98333.20
2018-07-28T16:02:21.119Z,98318.53
2018-07-28T16:04:50.666Z,98335.64
2018-07-28T16:07:20.001Z,98335.47
2018-07-28T16:09:49.311Z,98335.17
2018-07-28T16:12:19.076Z,98331.69
2018-07-28T16:14:49.508Z,98342.63
2018-07-28T16:17:18.799Z,98339.84
2018-07-28T16:19:49.392Z,98343.70
2018-07-28T16:22:19.615Z,98337.68
2018-07-28T16:24:49.253Z,98333.20
2018-07-28T16:27:19.008Z,98347.57
2018-07-28T16:29:48.322Z,98350.41
2018-07-28T16:32:17.927Z,98352.41
2018-07-28T16:34:47.267Z,98358.67
2018-07-28T16:37:16.690Z,98353.44
2018-07-28T16:39:45.987Z,98361.48
2018-07-28T16:42:15.365Z,98363.33
2018-07-28T16:44:44.687Z,98365.72
2018-07-28T16:47:14.748Z,98368.69
2018-07-28T16:49:44.287Z,98371.05
2018-07-28T16:52:14.039Z,98373.12
2018-07-28T16:54:43.336Z,98385.59
2018-07-28T16:57:12.692Z,98392.44
2018-07-28T16:59:42.001Z,98398.20
2018-07-28T17:02:11.383Z,98404.12
2018-07-28T17:04:41.057Z,98413.58
2018-07-28T17:07:10.400Z,98419.52
2018-07-28T17:09:40.373Z,98423.58
2018-07-28T17:12:10.006Z,98435.20
2018-07-28T17:14:39.974Z,98431.22
2018-07-28T17:17:09.276Z,98438.58
2018-07-28T17:19:38.640Z,98436.98
2018-07-28T17:22:08.509Z,98435.16
2018-07-28T17:24:38.307Z,98429.20
2018-07-28T17:27:08.433Z,98435.31
2018-07-28T17:29:38.222Z,98439.91
2018-07-28T17:32:07.780Z,98442.32
2018-07-28T17:34:37.133Z,98446.94
2018-07-28T17:37:06.947Z,98453.60
2018-07-28T17:39:36.300Z,98449.69
2018-07-28T17:42:05.769Z,98455.15
2018-07-28T17:44:35.436Z,98456.44
2018-07-28T17:47:04.978Z,98459.47
2018-07-28T17:49:35.072Z,98464.84
2018-07-28T17:52:04.456Z,98467.40
2018-07-28T17:54:34.380Z,98474.96
2018-07-28T17:57:04.625Z,98483.66
2018-07-28T17:59:34.018Z,98488.91
2018-07-28T18:02:03.345Z,98486.78
2018-07-28T18:04:33.573Z,98491.41
2018-07-28T18:07:03.343Z,98489.16
2018-07-28T18:09:32.898Z,98488.44
2018-07-28T18:12:02.816Z,98491.24
2018-07-28T18:14:33.249Z,98494.42
2018-07-28T18:17:03.289Z,98498.58
2018-07-28T18:19:32.647Z,98492.07
2018-07-28T18:22:02.141Z,98492.27
2018-07-28T18:24:31.689Z,98491.62
2018-07-28T18:27:01.547Z,98495.78
2018-07-28T18:29:31.252Z,98490.95
2018-07-28T18:32:00.595Z,98480.86
2018-07-28T18:34:30.355Z,98489.87
2018-07-28T18:36:59.656Z,98487.62
2018-07-28T18:39:29.520Z,98489.63
2018-07-28T18:41:59.783Z,98493.40
2018-07-28T18:44:29.103Z,98503.27
2018-07-28T18:46:58.395Z,98509.63
2018-07-28T18:49:27.729Z,98506.89
2018-07-28T18:51:57.427Z,98515.34
2018-07-28T18:54:27.164Z,98525.23
2018-07-28T18:56:56.480Z,98538.41
2018-07-28T18:59:26.063Z,98535.39
2018-07-28T19:01:55.724Z,98541.38
2018-07-28T19:04:25.059Z,98545.11
2018-07-28T19:06:54.636Z,98540.01
2018-07-28T19:09:29.271Z,98558.89
2018-07-28T19:11:59.202Z,98562.96
2018-07-28T19:14:34.235Z,98565.25
2018-07-28T19:17:03.979Z,98572.43
2018-07-28T19:19:33.733Z,98582.22
2018-07-28T19:22:03.116Z,98586.55
2018-07-28T19:24:32.442Z,98580.16
2018-07-28T19:27:01.744Z,98582.92
2018-07-28T19:29:37.291Z,98584.76
2018-07-28T19:32:07.748Z,98597.12
2018-07-28T19:34:37.083Z,98593.31
2018-07-28T19:37:11.957Z,98599.98
2018-07-28T19:39:41.892Z,98612.27
2018-07-28T19:42:16.777Z,98615.27
2018-07-28T19:44:46.324Z,98615.30
2018-07-28T19:47:15.626Z,98607.23
2018-07-28T19:49:45.823Z,98617.38
2018-07-28T19:52:15.150Z,98622.20
2018-07-28T19:54:44.470Z,98616.41
2018-07-28T19:57:14.294Z,98614.56
2018-07-28T19:59:43.638Z,98620.87
2018-07-28T20:02:12.997Z,98622.86
2018-07-28T20:04:43.164Z,98620.95
2018-07-28T20:07:12.939Z,98631.98
2018-07-28T20:09:43.104Z,98636.77
2018-07-28T20:12:12.819Z,98634.49
2018-07-28T20:14:42.148Z,98637.74
2018-07-28T20:17:11.468Z,98627.98
2018-07-28T20:19:41.114Z,98640.50
2018-07-28T20:22:10.789Z,98643.63
2018-07-28T20:24:40.473Z,98659.30
2018-07-28T20:27:09.776Z,98652.63
2018-07-28T20:29:39.095Z,98660.66
2018-07-28T20:32:10.191Z,98662.81
2018-07-28T20:34:39.496Z,98660.24
2018-07-28T20:37:08.771Z,98667.23
2018-07-28T20:39:38.415Z,98661.63
2018-07-28T20:42:07.731Z,98671.45
2018-07-28T20:44:37.354Z,98675.95
2018-07-28T20:47:08.514Z,98679.50
2018-07-28T20:49:38.300Z,98683.69
2018-07-28T20:52:07.838Z,98681.50
2018-07-28T20:54:37.726Z,98677.33
2018-07-28T20:57:07.462Z,98687.55
2018-07-28T20:59:37.021Z,98679.56
2018-07-28T21:02:06.984Z,98687.63
2018-07-28T21:04:36.345Z,98680.80
2018-07-28T21:07:05.754Z,98684.65
2018-07-28T21:09:35.121Z,98696.30
2018-07-28T21:12:04.446Z,98705.20
2018-07-28T21:14:34.311Z,98705.86
2018-07-28T21:17:04.312Z,98707.31
2018-07-28T21:19:34.222Z,98714.59
2018-07-28T21:22:03.934Z,98709.65
2018-07-28T21:24:33.253Z,98717.75
2018-07-28T21:27:02.856Z,98718.83
2018-07-28T21:29:32.524Z,98725.88
2018-07-28T21:32:01.838Z,98724.10
2018-07-28T21:34:31.510Z,98736.03
2018-07-28T21:37:00.787Z,98738.83
2018-07-28T21:39:30.107Z,98739.35
2018-07-28T21:41:59.454Z,98737.00
2018-07-28T21:44:28.752Z,98728.00
2018-07-28T21:46:58.445Z,98732.05
2018-07-28T21:49:28.088Z,98733.27
2018-07-28T21:51:57.397Z,98737.34
2018-07-28T21:54:26.704Z,98745.00
2018-07-28T21:56:56.978Z,98747.88
2018-07-28T21:59:26.670Z,98750.89
2018-07-28T22:01:56.015Z,98757.30
2018-07-28T22:04:35.778Z,98757.84
2018-07-28T22:07:05.107Z,98751.67
2018-07-28T22:09:34.384Z,98752.88
2018-07-28T22:12:03.728Z,98759.16
2018-07-28T22:14:34.750Z,98765.18
2018-07-28T22:17:05.557Z,98766.48
2018-07-28T22:19:34.864Z,98761.03
2018-07-28T22:22:04.269Z,98762.72
2018-07-28T22:24:33.552Z,98762.96
2018-07-28T22:27:02.920Z,98779.73
2018-07-28T22:29:32.445Z,98778.46
2018-07-28T22:32:01.780Z,98778.32
2018-07-28T22:34:31.430Z,98781.40
2018-07-28T22:37:00.761Z,98784.69
2018-07-28T22:39:30.060Z,98784.69
2018-07-28T22:41:59.686Z,98784.36
2018-07-28T22:44:29.312Z,98788.33
2018-07-28T22:46:58.996Z,98794.56
2018-07-28T22:49:28.279Z,98799.31
2018-07-28T22:51:57.914Z,98796.23
2018-07-28T22:54:27.225Z,98794.50
2018-07-28T22:56:58.055Z,98788.62
2018-07-28T22:59:28.248Z,98790.59
2018-07-28T23:01:57.662Z,98797.72
2018-07-28T23:04:26.955Z,98799.63
2018-07-28T23:07:00.959Z,98806.16
2018-07-28T23:09:30.506Z,98804.25
2018-07-28T23:12:00.069Z,98806.86
2018-07-28T23:14:29.387Z,98808.31
2018-07-28T23:16:58.731Z,98809.86
2018-07-28T23:19:28.072Z,98809.75
2018-07-28T23:21:57.390Z,98819.06
2018-07-28T23:24:26.712Z,98817.97
2018-07-28T23:26:56.425Z,98825.50
2018-07-28T23:29:26.202Z,98821.78
2018-07-28T23:31:55.550Z,98823.28
2018-07-28T23:34:27.925Z,98815.82
2018-07-28T23:36:57.769Z,98823.88
2018-07-28T23:39:27.076Z,98830.98
2018-07-28T23:41:56.451Z,98831.84
2018-07-28T23:44:25.764Z,98840.11
2018-07-28T23:46:55.152Z,98842.17
2018-07-28T23:49:24.577Z,98838.97
2018-07-28T23:51:55.113Z,98837.48
2018-07-28T23:54:24.876Z,98841.45
2018-07-28T23:56:54.255Z,98841.86
2018-07-28T23:59:23.884Z,98844.20
